sensor_id;sensor_type;location;lat;lon;timestamp;noise_LAeq;noise_LA_min;noise_LA_max;noise_LA01;noise_LA95
69611;Laerm;56817;52.302;4.844;2023-03-01T00:00:08;36.98;35.01;39.04;;
69611;Laerm;56817;52.302;4.844;2023-03-01T00:00:19;39.08;35.49;41.55;;
69611;Laerm;56817;52.302;4.844;2023-03-01T00:00:29;40.38;37.81;43.89;;
69611;Laerm;56817;52.302;4.844;2023-03-01T00:00:39;40.13;37.12;43.28;;
69611;Laerm;56817;52.302;4.844;2023-03-01T00:00:50;39.19;36.86;41.02;;
69611;Laerm;56817;52.302;4.844;2023-03-01T00:01:03;38.29;35.90;40.52;;
69611;Laerm;56817;52.302;4.844;2023-03-01T00:01:15;39.69;36.89;44.06;;
69611;Laerm;56817;52.302;4.844;2023-03-01T00:01:26;40.85;38.19;44.43;;
69611;Laerm;56817;52.302;4.844;2023-03-01T00:01:37;41.26;38.48;44.93;;
69611;Laerm;56817;52.302;4.844;2023-03-01T00:01:47;38.68;36.43;41.51;;
69611;Laerm;56817;52.302;4.844;2023-03-01T00:01:57;39.55;36.70;42.15;;
69611;Laerm;56817;52.302;4.844;2023-03-01T00:02:08;39.19;35.66;42.38;;
69611;Laerm;56817;52.302;4.844;2023-03-01T00:02:18;38.73;36.81;40.65;;
69611;Laerm;56817;52.302;4.844;2023-03-01T00:02:28;39.01;36.23;41.47;;
69611;Laerm;56817;52.302;4.844;2023-03-01T00:02:39;38.89;36.50;41.33;;
69611;Laerm;56817;52.302;4.844;2023-03-01T00:02:49;38.22;35.36;40.95;;
69611;Laerm;56817;52.302;4.844;2023-03-01T00:02:59;37.14;34.59;39.62;;
69611;Laerm;56817;52.302;4.844;2023-03-01T00:03:09;40.02;36.46;44.44;;
69611;Laerm;56817;52.302;4.844;2023-03-01T00:03:20;38.96;36.46;41.77;;
69611;Laerm;56817;52.302;4.844;2023-03-01T00:03:30;39.71;36.84;42.03;;
69611;Laerm;56817;52.302;4.844;2023-03-01T00:03:40;40.01;36.90;43.06;;
69611;Laerm;56817;52.302;4.844;2023-03-01T00:03:51;40.15;37.78;43.14;;
69611;Laerm;56817;52.302;4.844;2023-03-01T00:04:02;40.90;37.27;49.56;;
69611;Laerm;56817;52.302;4.844;2023-03-01T00:04:12;40.58;37.85;45.67;;
69611;Laerm;56817;52.302;4.844;2023-03-01T00:04:22;40.72;38.26;43.29;;
69611;Laerm;56817;52.302;4.844;2023-03-01T00:04:32;41.25;38.93;43.99;;
69611;Laerm;56817;52.302;4.844;2023-03-01T00:04:42;44.16;39.47;49.46;;
69611;Laerm;56817;52.302;4.844;2023-03-01T00:04:53;42.03;37.10;48.60;;
69611;Laerm;56817;52.302;4.844;2023-03-01T00:05:03;38.80;36.37;40.94;;
69611;Laerm;56817;52.302;4.844;2023-03-01T00:05:14;40.50;36.65;44.24;;
69611;Laerm;56817;52.302;4.844;2023-03-01T00:05:24;41.62;38.80;46.15;;
69611;Laerm;56817;52.302;4.844;2023-03-01T00:05:34;42.39;38.60;45.92;;
69611;Laerm;56817;52.302;4.844;2023-03-01T00:05:45;39.77;38.07;41.93;;
69611;Laerm;56817;52.302;4.844;2023-03-01T00:05:55;38.33;35.83;40.32;;
69611;Laerm;56817;52.302;4.844;2023-03-01T00:06:06;38.41;36.47;40.55;;
69611;Laerm;56817;52.302;4.844;2023-03-01T00:06:16;38.44;35.74;41.92;;
69611;Laerm;56817;52.302;4.844;2023-03-01T00:06:27;41.15;37.00;45.76;;
69611;Laerm;56817;52.302;4.844;2023-03-01T00:06:37;40.10;37.26;41.85;;
69611;Laerm;56817;52.302;4.844;2023-03-01T00:06:47;40.39;38.17;42.99;;
69611;Laerm;56817;52.302;4.844;2023-03-01T00:06:58;40.51;37.36;43.68;;
69611;Laerm;56817;52.302;4.844;2023-03-01T00:07:08;40.45;37.56;44.30;;
69611;Laerm;56817;52.302;4.844;2023-03-01T00:07:18;41.70;38.65;45.49;;
69611;Laerm;56817;52.302;4.844;2023-03-01T00:07:29;41.16;37.87;45.70;;
69611;Laerm;56817;52.302;4.844;2023-03-01T00:07:39;39.56;36.20;42.83;;
69611;Laerm;56817;52.302;4.844;2023-03-01T00:07:52;38.87;36.85;42.14;;
69611;Laerm;56817;52.302;4.844;2023-03-01T00:08:02;38.99;36.56;41.85;;
69611;Laerm;56817;52.302;4.844;2023-03-01T00:08:12;38.25;35.57;40.43;;
69611;Laerm;56817;52.302;4.844;2023-03-01T00:08:24;39.30;36.91;42.45;;
69611;Laerm;56817;52.302;4.844;2023-03-01T00:08:34;40.60;37.48;43.99;;
69611;Laerm;56817;52.302;4.844;2023-03-01T00:08:45;40.73;38.25;43.12;;
69611;Laerm;56817;52.302;4.844;2023-03-01T00:08:55;39.60;37.12;42.13;;
69611;Laerm;56817;52.302;4.844;2023-03-01T00:09:06;39.52;37.35;41.80;;
69611;Laerm;56817;52.302;4.844;2023-03-01T00:09:16;40.86;38.62;43.84;;
69611;Laerm;56817;52.302;4.844;2023-03-01T00:09:27;40.37;37.43;43.41;;
69611;Laerm;56817;52.302;4.844;2023-03-01T00:09:37;38.96;36.92;41.62;;
69611;Laerm;56817;52.302;4.844;2023-03-01T00:09:47;40.28;37.20;45.24;;
69611;Laerm;56817;52.302;4.844;2023-03-01T00:09:57;39.14;36.98;41.29;;
69611;Laerm;56817;52.302;4.844;2023-03-01T00:10:08;40.29;36.92;45.74;;
69611;Laerm;56817;52.302;4.844;2023-03-01T00:10:18;39.95;37.73;43.34;;
69611;Laerm;56817;52.302;4.844;2023-03-01T00:10:28;41.29;38.64;44.11;;
69611;Laerm;56817;52.302;4.844;2023-03-01T00:10:39;41.73;39.32;45.70;;
69611;Laerm;56817;52.302;4.844;2023-03-01T00:10:49;41.37;39.01;44.02;;
69611;Laerm;56817;52.302;4.844;2023-03-01T00:11:04;40.84;38.68;42.82;;
69611;Laerm;56817;52.302;4.844;2023-03-01T00:11:15;40.23;37.73;42.84;;
69611;Laerm;56817;52.302;4.844;2023-03-01T00:11:28;40.74;38.54;43.08;;
69611;Laerm;56817;52.302;4.844;2023-03-01T00:11:39;41.68;38.89;45.86;;
69611;Laerm;56817;52.302;4.844;2023-03-01T00:11:49;40.81;38.38;43.66;;
69611;Laerm;56817;52.302;4.844;2023-03-01T00:11:59;39.57;37.06;42.33;;
69611;Laerm;56817;52.302;4.844;2023-03-01T00:12:10;41.10;38.76;44.66;;
69611;Laerm;56817;52.302;4.844;2023-03-01T00:12:21;40.79;37.59;43.93;;
69611;Laerm;56817;52.302;4.844;2023-03-01T00:12:31;41.09;38.53;43.45;;
69611;Laerm;56817;52.302;4.844;2023-03-01T00:12:41;41.07;38.62;43.82;;
69611;Laerm;56817;52.302;4.844;2023-03-01T00:12:51;41.39;38.45;43.70;;
69611;Laerm;56817;52.302;4.844;2023-03-01T00:13:02;41.49;38.72;44.95;;
69611;Laerm;56817;52.302;4.844;2023-03-01T00:13:12;40.82;37.90;43.39;;
69611;Laerm;56817;52.302;4.844;2023-03-01T00:13:22;39.46;36.79;42.33;;
69611;Laerm;56817;52.302;4.844;2023-03-01T00:13:33;37.23;35.47;39.57;;
69611;Laerm;56817;52.302;4.844;2023-03-01T00:13:44;39.00;35.56;41.97;;
69611;Laerm;56817;52.302;4.844;2023-03-01T00:13:56;38.49;35.65;41.48;;
69611;Laerm;56817;52.302;4.844;2023-03-01T00:14:07;38.92;36.29;41.63;;
69611;Laerm;56817;52.302;4.844;2023-03-01T00:14:17;38.23;35.47;41.93;;
69611;Laerm;56817;52.302;4.844;2023-03-01T00:14:27;43.40;35.05;53.78;;
69611;Laerm;56817;52.302;4.844;2023-03-01T00:14:37;48.27;40.37;59.16;;
69611;Laerm;56817;52.302;4.844;2023-03-01T00:14:48;40.01;37.06;44.70;;
69611;Laerm;56817;52.302;4.844;2023-03-01T00:14:58;39.04;36.27;41.96;;
69611;Laerm;56817;52.302;4.844;2023-03-01T00:15:08;41.62;38.64;45.91;;
69611;Laerm;56817;52.302;4.844;2023-03-01T00:15:19;41.08;38.36;45.14;;
69611;Laerm;56817;52.302;4.844;2023-03-01T00:15:29;39.15;35.96;44.79;;
69611;Laerm;56817;52.302;4.844;2023-03-01T00:15:40;38.71;36.34;42.67;;
69611;Laerm;56817;52.302;4.844;2023-03-01T00:15:51;39.59;36.22;43.91;;
69611;Laerm;56817;52.302;4.844;2023-03-01T00:16:06;40.29;37.08;43.36;;
69611;Laerm;56817;52.302;4.844;2023-03-01T00:16:17;39.50;37.57;43.36;;
69611;Laerm;56817;52.302;4.844;2023-03-01T00:16:29;41.45;37.46;45.22;;
69611;Laerm;56817;52.302;4.844;2023-03-01T00:16:40;39.97;37.36;45.04;;
69611;Laerm;56817;52.302;4.844;2023-03-01T00:16:51;40.90;37.48;44.75;;
69611;Laerm;56817;52.302;4.844;2023-03-01T00:17:02;41.54;38.46;45.81;;
69611;Laerm;56817;52.302;4.844;2023-03-01T00:17:12;42.50;39.77;45.53;;
69611;Laerm;56817;52.302;4.844;2023-03-01T00:17:22;40.35;37.59;42.46;;
69611;Laerm;56817;52.302;4.844;2023-03-01T00:17:33;41.08;36.83;46.08;;
69611;Laerm;56817;52.302;4.844;2023-03-01T00:17:43;40.86;36.94;45.53;;
69611;Laerm;56817;52.302;4.844;2023-03-01T00:17:53;41.01;37.91;44.05;;
69611;Laerm;56817;52.302;4.844;2023-03-01T00:18:03;40.72;37.89;43.95;;
69611;Laerm;56817;52.302;4.844;2023-03-01T00:18:14;39.54;37.18;45.12;;
69611;Laerm;56817;52.302;4.844;2023-03-01T00:18:24;40.75;36.49;43.70;;
69611;Laerm;56817;52.302;4.844;2023-03-01T00:18:34;39.44;36.88;41.59;;
69611;Laerm;56817;52.302;4.844;2023-03-01T00:18:45;40.52;37.89;43.93;;
69611;Laerm;56817;52.302;4.844;2023-03-01T00:18:56;42.61;39.12;45.80;;
69611;Laerm;56817;52.302;4.844;2023-03-01T00:19:06;42.02;38.63;48.32;;
69611;Laerm;56817;52.302;4.844;2023-03-01T00:19:18;38.74;36.53;40.83;;
69611;Laerm;56817;52.302;4.844;2023-03-01T00:19:28;38.64;36.55;40.76;;
69611;Laerm;56817;52.302;4.844;2023-03-01T00:19:38;38.86;36.96;41.36;;
69611;Laerm;56817;52.302;4.844;2023-03-01T00:19:49;40.29;37.35;44.84;;
69611;Laerm;56817;52.302;4.844;2023-03-01T00:19:59;39.42;36.74;42.06;;
69611;Laerm;56817;52.302;4.844;2023-03-01T00:20:09;39.63;37.39;45.39;;
69611;Laerm;56817;52.302;4.844;2023-03-01T00:20:20;41.45;38.53;45.23;;
69611;Laerm;56817;52.302;4.844;2023-03-01T00:20:30;39.99;37.59;44.51;;
69611;Laerm;56817;52.302;4.844;2023-03-01T00:20:40;42.06;37.88;47.12;;
69611;Laerm;56817;52.302;4.844;2023-03-01T00:20:51;42.34;38.87;46.48;;
69611;Laerm;56817;52.302;4.844;2023-03-01T00:21:02;42.12;38.89;45.41;;
69611;Laerm;56817;52.302;4.844;2023-03-01T00:21:12;43.54;40.06;46.24;;
69611;Laerm;56817;52.302;4.844;2023-03-01T00:21:22;41.12;38.44;44.40;;
69611;Laerm;56817;52.302;4.844;2023-03-01T00:21:33;40.34;36.47;44.61;;
69611;Laerm;56817;52.302;4.844;2023-03-01T00:21:45;41.44;37.83;47.01;;
69611;Laerm;56817;52.302;4.844;2023-03-01T00:21:55;41.76;38.75;44.51;;
69611;Laerm;56817;52.302;4.844;2023-03-01T00:22:05;40.10;37.62;43.20;;
69611;Laerm;56817;52.302;4.844;2023-03-01T00:22:16;41.48;38.61;45.43;;
69611;Laerm;56817;52.302;4.844;2023-03-01T00:22:26;42.68;39.53;46.42;;
69611;Laerm;56817;52.302;4.844;2023-03-01T00:22:38;42.64;38.89;47.65;;
69611;Laerm;56817;52.302;4.844;2023-03-01T00:22:48;41.66;38.97;46.37;;
69611;Laerm;56817;52.302;4.844;2023-03-01T00:22:58;41.88;39.13;46.54;;
69611;Laerm;56817;52.302;4.844;2023-03-01T00:23:08;41.15;38.49;49.32;;
69611;Laerm;56817;52.302;4.844;2023-03-01T00:23:19;41.87;38.47;46.93;;
69611;Laerm;56817;52.302;4.844;2023-03-01T00:23:29;41.04;38.04;46.96;;
69611;Laerm;56817;52.302;4.844;2023-03-01T00:23:40;41.99;38.29;48.04;;
69611;Laerm;56817;52.302;4.844;2023-03-01T00:23:50;41.35;38.27;47.84;;
69611;Laerm;56817;52.302;4.844;2023-03-01T00:24:01;39.13;36.39;42.99;;
69611;Laerm;56817;52.302;4.844;2023-03-01T00:24:12;41.70;37.80;47.81;;
69611;Laerm;56817;52.302;4.844;2023-03-01T00:24:22;41.84;39.18;45.74;;
69611;Laerm;56817;52.302;4.844;2023-03-01T00:24:32;40.76;37.93;43.07;;
69611;Laerm;56817;52.302;4.844;2023-03-01T00:24:43;43.73;39.14;51.87;;
69611;Laerm;56817;52.302;4.844;2023-03-01T00:24:53;41.28;37.32;46.81;;
69611;Laerm;56817;52.302;4.844;2023-03-01T00:25:03;41.76;37.67;45.89;;
69611;Laerm;56817;52.302;4.844;2023-03-01T00:25:14;42.21;39.57;46.43;;
69611;Laerm;56817;52.302;4.844;2023-03-01T00:25:24;42.24;39.63;45.59;;
69611;Laerm;56817;52.302;4.844;2023-03-01T00:25:40;42.66;40.05;49.45;;
69611;Laerm;56817;52.302;4.844;2023-03-01T00:25:50;40.93;37.77;45.11;;
69611;Laerm;56817;52.302;4.844;2023-03-01T00:26:01;39.04;36.87;41.88;;
69611;Laerm;56817;52.302;4.844;2023-03-01T00:26:12;39.50;36.65;43.54;;
69611;Laerm;56817;52.302;4.844;2023-03-01T00:26:23;40.42;37.14;44.86;;
69611;Laerm;56817;52.302;4.844;2023-03-01T00:26:34;42.38;39.66;45.53;;
69611;Laerm;56817;52.302;4.844;2023-03-01T00:26:44;44.01;40.73;48.35;;
69611;Laerm;56817;52.302;4.844;2023-03-01T00:26:55;42.17;38.70;45.05;;
69611;Laerm;56817;52.302;4.844;2023-03-01T00:27:05;42.68;39.57;47.18;;
69611;Laerm;56817;52.302;4.844;2023-03-01T00:27:16;40.40;36.87;45.42;;
69611;Laerm;56817;52.302;4.844;2023-03-01T00:27:26;40.69;37.95;43.36;;
69611;Laerm;56817;52.302;4.844;2023-03-01T00:27:36;40.55;37.77;44.34;;
69611;Laerm;56817;52.302;4.844;2023-03-01T00:27:46;39.74;37.61;41.92;;
69611;Laerm;56817;52.302;4.844;2023-03-01T00:27:58;40.66;38.05;43.62;;
69611;Laerm;56817;52.302;4.844;2023-03-01T00:28:09;40.35;37.84;44.64;;
69611;Laerm;56817;52.302;4.844;2023-03-01T00:28:19;40.20;36.71;45.29;;
69611;Laerm;56817;52.302;4.844;2023-03-01T00:28:29;41.49;39.03;47.90;;
69611;Laerm;56817;52.302;4.844;2023-03-01T00:28:40;40.87;37.15;49.09;;
69611;Laerm;56817;52.302;4.844;2023-03-01T00:28:50;39.49;36.05;46.88;;
69611;Laerm;56817;52.302;4.844;2023-03-01T00:29:01;37.10;34.97;39.39;;
69611;Laerm;56817;52.302;4.844;2023-03-01T00:29:11;38.86;35.43;41.89;;
69611;Laerm;56817;52.302;4.844;2023-03-01T00:29:22;40.44;37.43;43.28;;
69611;Laerm;56817;52.302;4.844;2023-03-01T00:29:32;42.14;38.63;46.72;;
69611;Laerm;56817;52.302;4.844;2023-03-01T00:29:43;41.66;37.53;48.53;;
69611;Laerm;56817;52.302;4.844;2023-03-01T00:29:53;39.77;35.27;45.58;;
69611;Laerm;56817;52.302;4.844;2023-03-01T00:30:03;39.46;35.79;43.78;;
69611;Laerm;56817;52.302;4.844;2023-03-01T00:30:14;43.86;41.25;46.42;;
69611;Laerm;56817;52.302;4.844;2023-03-01T00:30:24;43.64;41.05;46.98;;
69611;Laerm;56817;52.302;4.844;2023-03-01T00:30:34;42.77;40.04;45.85;;
69611;Laerm;56817;52.302;4.844;2023-03-01T00:30:45;43.48;40.25;46.61;;
69611;Laerm;56817;52.302;4.844;2023-03-01T00:30:55;44.17;39.76;48.37;;
69611;Laerm;56817;52.302;4.844;2023-03-01T00:31:06;42.84;40.28;45.63;;
69611;Laerm;56817;52.302;4.844;2023-03-01T00:31:20;42.35;39.50;45.27;;
69611;Laerm;56817;52.302;4.844;2023-03-01T00:31:31;43.38;40.39;46.75;;
69611;Laerm;56817;52.302;4.844;2023-03-01T00:31:42;44.20;41.11;46.88;;
69611;Laerm;56817;52.302;4.844;2023-03-01T00:31:52;44.14;41.48;47.93;;
69611;Laerm;56817;52.302;4.844;2023-03-01T00:32:02;42.60;40.04;45.08;;
69611;Laerm;56817;52.302;4.844;2023-03-01T00:32:13;41.68;39.39;45.10;;
69611;Laerm;56817;52.302;4.844;2023-03-01T00:32:23;41.18;38.86;43.79;;
69611;Laerm;56817;52.302;4.844;2023-03-01T00:32:33;42.06;38.02;45.97;;
69611;Laerm;56817;52.302;4.844;2023-03-01T00:32:44;40.89;38.15;44.58;;
69611;Laerm;56817;52.302;4.844;2023-03-01T00:32:54;39.42;36.98;41.72;;
69611;Laerm;56817;52.302;4.844;2023-03-01T00:33:04;41.08;38.71;43.19;;
69611;Laerm;56817;52.302;4.844;2023-03-01T00:33:14;40.04;37.66;41.99;;
69611;Laerm;56817;52.302;4.844;2023-03-01T00:33:25;42.43;39.23;45.80;;
69611;Laerm;56817;52.302;4.844;2023-03-01T00:33:35;43.58;39.61;46.86;;
69611;Laerm;56817;52.302;4.844;2023-03-01T00:33:45;42.19;37.82;46.98;;
69611;Laerm;56817;52.302;4.844;2023-03-01T00:33:57;41.49;38.71;45.02;;
69611;Laerm;56817;52.302;4.844;2023-03-01T00:34:07;40.29;36.24;46.61;;
69611;Laerm;56817;52.302;4.844;2023-03-01T00:34:18;41.45;38.60;44.65;;
69611;Laerm;56817;52.302;4.844;2023-03-01T00:34:28;40.76;38.42;42.75;;
69611;Laerm;56817;52.302;4.844;2023-03-01T00:34:38;40.44;37.90;43.10;;
69611;Laerm;56817;52.302;4.844;2023-03-01T00:34:48;43.82;40.28;48.07;;
69611;Laerm;56817;52.302;4.844;2023-03-01T00:35:04;41.68;37.29;45.60;;
69611;Laerm;56817;52.302;4.844;2023-03-01T00:35:15;44.03;40.58;47.40;;
69611;Laerm;56817;52.302;4.844;2023-03-01T00:35:26;44.59;41.17;50.93;;
69611;Laerm;56817;52.302;4.844;2023-03-01T00:35:36;42.87;40.79;45.63;;
69611;Laerm;56817;52.302;4.844;2023-03-01T00:35:46;43.89;40.64;48.86;;
69611;Laerm;56817;52.302;4.844;2023-03-01T00:36:00;41.26;38.31;44.08;;
69611;Laerm;56817;52.302;4.844;2023-03-01T00:36:11;39.29;37.31;41.97;;
69611;Laerm;56817;52.302;4.844;2023-03-01T00:36:22;41.28;38.76;44.38;;
69611;Laerm;56817;52.302;4.844;2023-03-01T00:36:34;44.44;40.90;47.09;;
69611;Laerm;56817;52.302;4.844;2023-03-01T00:36:44;42.81;39.34;45.97;;
69611;Laerm;56817;52.302;4.844;2023-03-01T00:36:55;40.85;38.28;43.44;;
69611;Laerm;56817;52.302;4.844;2023-03-01T00:37:05;41.47;38.56;44.50;;
69611;Laerm;56817;52.302;4.844;2023-03-01T00:37:15;44.74;39.86;47.83;;
69611;Laerm;56817;52.302;4.844;2023-03-01T00:37:25;41.62;39.23;43.46;;
69611;Laerm;56817;52.302;4.844;2023-03-01T00:37:36;39.89;36.27;42.77;;
69611;Laerm;56817;52.302;4.844;2023-03-01T00:37:46;39.21;36.10;41.96;;
69611;Laerm;56817;52.302;4.844;2023-03-01T00:37:56;39.24;36.20;42.35;;
69611;Laerm;56817;52.302;4.844;2023-03-01T00:38:08;42.20;37.91;45.92;;
69611;Laerm;56817;52.302;4.844;2023-03-01T00:38:18;40.14;36.96;43.50;;
69611;Laerm;56817;52.302;4.844;2023-03-01T00:38:29;39.09;36.53;41.21;;
69611;Laerm;56817;52.302;4.844;2023-03-01T00:38:40;38.71;36.09;40.92;;
69611;Laerm;56817;52.302;4.844;2023-03-01T00:38:51;39.04;36.13;42.20;;
69611;Laerm;56817;52.302;4.844;2023-03-01T00:39:02;40.62;37.10;45.52;;
69611;Laerm;56817;52.302;4.844;2023-03-01T00:39:14;39.26;36.71;41.57;;
69611;Laerm;56817;52.302;4.844;2023-03-01T00:39:24;40.33;37.14;45.65;;
69611;Laerm;56817;52.302;4.844;2023-03-01T00:39:34;40.43;36.51;45.83;;
69611;Laerm;56817;52.302;4.844;2023-03-01T00:39:45;43.04;39.17;47.50;;
69611;Laerm;56817;52.302;4.844;2023-03-01T00:39:55;43.62;38.90;48.42;;
69611;Laerm;56817;52.302;4.844;2023-03-01T00:40:05;39.32;36.65;42.40;;
69611;Laerm;56817;52.302;4.844;2023-03-01T00:40:16;39.94;37.13;42.74;;
69611;Laerm;56817;52.302;4.844;2023-03-01T00:40:27;42.06;40.10;44.43;;
69611;Laerm;56817;52.302;4.844;2023-03-01T00:40:38;42.10;38.15;46.01;;
69611;Laerm;56817;52.302;4.844;2023-03-01T00:40:48;41.73;39.34;53.57;;
69611;Laerm;56817;52.302;4.844;2023-03-01T00:41:02;42.44;38.96;45.83;;
69611;Laerm;56817;52.302;4.844;2023-03-01T00:41:14;42.86;38.75;45.68;;
69611;Laerm;56817;52.302;4.844;2023-03-01T00:41:24;42.98;39.86;47.75;;
69611;Laerm;56817;52.302;4.844;2023-03-01T00:41:36;43.06;39.96;47.46;;
69611;Laerm;56817;52.302;4.844;2023-03-01T00:41:46;41.77;38.73;44.79;;
69611;Laerm;56817;52.302;4.844;2023-03-01T00:41:57;41.40;37.84;44.61;;
69611;Laerm;56817;52.302;4.844;2023-03-01T00:42:07;42.70;40.23;45.22;;
69611;Laerm;56817;52.302;4.844;2023-03-01T00:42:17;40.22;37.50;44.91;;
69611;Laerm;56817;52.302;4.844;2023-03-01T00:42:27;41.62;38.37;45.48;;
69611;Laerm;56817;52.302;4.844;2023-03-01T00:42:38;43.78;41.67;46.13;;
69611;Laerm;56817;52.302;4.844;2023-03-01T00:42:48;41.38;37.82;45.36;;
69611;Laerm;56817;52.302;4.844;2023-03-01T00:42:58;39.97;37.78;43.19;;
69611;Laerm;56817;52.302;4.844;2023-03-01T00:43:08;39.95;38.15;41.72;;
69611;Laerm;56817;52.302;4.844;2023-03-01T00:43:20;39.59;36.81;42.98;;
69611;Laerm;56817;52.302;4.844;2023-03-01T00:43:30;39.85;36.66;44.75;;
69611;Laerm;56817;52.302;4.844;2023-03-01T00:43:41;40.82;35.64;47.62;;
69611;Laerm;56817;52.302;4.844;2023-03-01T00:43:51;38.84;35.59;42.29;;
69611;Laerm;56817;52.302;4.844;2023-03-01T00:44:02;35.59;33.58;38.24;;
69611;Laerm;56817;52.302;4.844;2023-03-01T00:44:13;37.28;34.45;40.93;;
69611;Laerm;56817;52.302;4.844;2023-03-01T00:44:23;36.83;33.52;39.41;;
69611;Laerm;56817;52.302;4.844;2023-03-01T00:44:33;38.41;35.83;41.86;;
69611;Laerm;56817;52.302;4.844;2023-03-01T00:44:44;37.86;34.28;40.69;;
69611;Laerm;56817;52.302;4.844;2023-03-01T00:44:54;42.99;38.58;49.27;;
69611;Laerm;56817;52.302;4.844;2023-03-01T00:45:05;40.93;37.08;44.09;;
69611;Laerm;56817;52.302;4.844;2023-03-01T00:45:15;42.78;36.71;48.60;;
69611;Laerm;56817;52.302;4.844;2023-03-01T00:45:26;37.95;35.69;40.47;;
69611;Laerm;56817;52.302;4.844;2023-03-01T00:45:36;41.67;37.11;45.64;;
69611;Laerm;56817;52.302;4.844;2023-03-01T00:45:47;38.85;36.29;41.55;;
69611;Laerm;56817;52.302;4.844;2023-03-01T00:46:00;38.92;36.22;42.32;;
69611;Laerm;56817;52.302;4.844;2023-03-01T00:46:15;39.50;36.84;43.07;;
69611;Laerm;56817;52.302;4.844;2023-03-01T00:46:26;41.23;35.92;44.90;;
69611;Laerm;56817;52.302;4.844;2023-03-01T00:46:38;39.45;35.35;43.43;;
69611;Laerm;56817;52.302;4.844;2023-03-01T00:46:48;43.45;38.96;47.76;;
69611;Laerm;56817;52.302;4.844;2023-03-01T00:46:58;41.44;38.10;45.02;;
69611;Laerm;56817;52.302;4.844;2023-03-01T00:47:08;41.01;37.64;45.96;;
69611;Laerm;56817;52.302;4.844;2023-03-01T00:47:19;38.12;35.76;42.25;;
69611;Laerm;56817;52.302;4.844;2023-03-01T00:47:29;38.31;35.86;40.84;;
69611;Laerm;56817;52.302;4.844;2023-03-01T00:47:39;38.47;36.19;40.84;;
69611;Laerm;56817;52.302;4.844;2023-03-01T00:47:50;40.16;36.56;45.11;;
69611;Laerm;56817;52.302;4.844;2023-03-01T00:48:00;40.65;38.26;42.57;;
69611;Laerm;56817;52.302;4.844;2023-03-01T00:48:10;41.25;38.36;45.23;;
69611;Laerm;56817;52.302;4.844;2023-03-01T00:48:20;40.35;37.82;43.71;;
69611;Laerm;56817;52.302;4.844;2023-03-01T00:48:31;38.91;36.79;42.06;;
69611;Laerm;56817;52.302;4.844;2023-03-01T00:48:41;39.01;36.29;43.25;;
69611;Laerm;56817;52.302;4.844;2023-03-01T00:48:52;39.10;36.57;43.44;;
69611;Laerm;56817;52.302;4.844;2023-03-01T00:49:02;41.70;36.74;45.87;;
69611;Laerm;56817;52.302;4.844;2023-03-01T00:49:14;41.01;38.77;43.46;;
69611;Laerm;56817;52.302;4.844;2023-03-01T00:49:24;40.18;37.61;43.82;;
69611;Laerm;56817;52.302;4.844;2023-03-01T00:49:37;38.95;35.95;43.07;;
69611;Laerm;56817;52.302;4.844;2023-03-01T00:49:47;37.60;35.15;40.85;;
69611;Laerm;56817;52.302;4.844;2023-03-01T00:49:58;41.21;37.99;43.57;;
69611;Laerm;56817;52.302;4.844;2023-03-01T00:50:08;40.36;37.81;43.57;;
69611;Laerm;56817;52.302;4.844;2023-03-01T00:50:19;41.63;38.30;45.09;;
69611;Laerm;56817;52.302;4.844;2023-03-01T00:50:30;39.87;36.12;44.80;;
69611;Laerm;56817;52.302;4.844;2023-03-01T00:50:40;39.79;36.14;43.31;;
69611;Laerm;56817;52.302;4.844;2023-03-01T00:50:50;40.98;37.70;44.04;;
69611;Laerm;56817;52.302;4.844;2023-03-01T00:51:20;42.99;39.46;46.52;;
69611;Laerm;56817;52.302;4.844;2023-03-01T00:51:31;40.24;36.30;43.17;;
69611;Laerm;56817;52.302;4.844;2023-03-01T00:51:41;38.92;35.33;42.80;;
69611;Laerm;56817;52.302;4.844;2023-03-01T00:51:51;40.87;37.83;44.03;;
69611;Laerm;56817;52.302;4.844;2023-03-01T00:52:02;42.48;39.87;44.87;;
69611;Laerm;56817;52.302;4.844;2023-03-01T00:52:12;40.81;37.79;43.87;;
69611;Laerm;56817;52.302;4.844;2023-03-01T00:52:22;42.73;39.49;46.76;;
69611;Laerm;56817;52.302;4.844;2023-03-01T00:52:32;41.61;38.44;45.21;;
69611;Laerm;56817;52.302;4.844;2023-03-01T00:52:43;38.77;36.48;41.23;;
69611;Laerm;56817;52.302;4.844;2023-03-01T00:52:56;39.61;33.55;44.31;;
69611;Laerm;56817;52.302;4.844;2023-03-01T00:53:07;36.51;34.03;39.16;;
69611;Laerm;56817;52.302;4.844;2023-03-01T00:53:17;39.37;35.79;43.06;;
69611;Laerm;56817;52.302;4.844;2023-03-01T00:53:27;39.93;36.53;44.68;;
69611;Laerm;56817;52.302;4.844;2023-03-01T00:53:38;37.00;34.77;39.63;;
69611;Laerm;56817;52.302;4.844;2023-03-01T00:53:52;37.57;34.08;41.69;;
69611;Laerm;56817;52.302;4.844;2023-03-01T00:54:02;39.47;33.90;44.86;;
69611;Laerm;56817;52.302;4.844;2023-03-01T00:54:13;37.30;34.38;44.46;;
69611;Laerm;56817;52.302;4.844;2023-03-01T00:54:23;37.09;33.59;40.52;;
69611;Laerm;56817;52.302;4.844;2023-03-01T00:54:33;34.28;32.41;39.13;;
69611;Laerm;56817;52.302;4.844;2023-03-01T00:54:43;33.40;31.51;36.75;;
69611;Laerm;56817;52.302;4.844;2023-03-01T00:54:53;34.59;32.46;36.86;;
69611;Laerm;56817;52.302;4.844;2023-03-01T00:55:04;33.54;31.66;36.05;;
69611;Laerm;56817;52.302;4.844;2023-03-01T00:55:14;36.13;31.60;40.39;;
69611;Laerm;56817;52.302;4.844;2023-03-01T00:55:25;36.17;33.73;39.22;;
69611;Laerm;56817;52.302;4.844;2023-03-01T00:55:35;36.55;33.65;40.71;;
69611;Laerm;56817;52.302;4.844;2023-03-01T00:55:46;37.46;33.44;41.77;;
69611;Laerm;56817;52.302;4.844;2023-03-01T00:55:56;35.88;33.33;38.43;;
69611;Laerm;56817;52.302;4.844;2023-03-01T00:56:07;34.96;32.50;40.88;;
69611;Laerm;56817;52.302;4.844;2023-03-01T00:56:18;40.01;34.23;45.55;;
69611;Laerm;56817;52.302;4.844;2023-03-01T00:56:29;40.30;37.44;43.27;;
69611;Laerm;56817;52.302;4.844;2023-03-01T00:56:39;40.04;36.84;44.84;;
69611;Laerm;56817;52.302;4.844;2023-03-01T00:56:50;41.08;37.37;43.66;;
69611;Laerm;56817;52.302;4.844;2023-03-01T00:57:00;41.33;37.74;45.99;;
69611;Laerm;56817;52.302;4.844;2023-03-01T00:57:10;39.57;37.17;45.31;;
69611;Laerm;56817;52.302;4.844;2023-03-01T00:57:21;41.19;38.12;44.11;;
69611;Laerm;56817;52.302;4.844;2023-03-01T00:57:31;41.46;38.36;44.61;;
69611;Laerm;56817;52.302;4.844;2023-03-01T00:57:42;39.87;37.41;43.26;;
69611;Laerm;56817;52.302;4.844;2023-03-01T00:57:52;39.86;36.32;44.67;;
69611;Laerm;56817;52.302;4.844;2023-03-01T00:58:02;42.78;38.58;46.15;;
69611;Laerm;56817;52.302;4.844;2023-03-01T00:58:12;41.27;38.37;44.29;;
69611;Laerm;56817;52.302;4.844;2023-03-01T00:58:23;40.41;37.46;44.29;;
69611;Laerm;56817;52.302;4.844;2023-03-01T00:58:33;39.12;36.44;42.62;;
69611;Laerm;56817;52.302;4.844;2023-03-01T00:58:44;37.54;35.02;40.39;;
69611;Laerm;56817;52.302;4.844;2023-03-01T00:58:54;40.47;35.81;44.92;;
69611;Laerm;56817;52.302;4.844;2023-03-01T00:59:04;39.88;36.79;44.39;;
69611;Laerm;56817;52.302;4.844;2023-03-01T00:59:15;42.06;37.79;44.40;;
69611;Laerm;56817;52.302;4.844;2023-03-01T00:59:25;41.47;38.05;44.78;;
69611;Laerm;56817;52.302;4.844;2023-03-01T00:59:35;39.85;37.60;42.42;;
69611;Laerm;56817;52.302;4.844;2023-03-01T00:59:45;38.63;36.21;41.92;;
69611;Laerm;56817;52.302;4.844;2023-03-01T00:59:56;39.33;36.48;49.53;;